sensor_id;sensor_type;location;lat;lon;timestamp;pressure;altitude;pressure_sealevel;temperature;humidity
32109;BME280;18624;50.042;8.436;2023-04-15T00:00:56;99593.81;;;6.98;88.79
32109;BME280;18624;50.042;8.436;2023-04-15T00:03:23;99597.75;;;6.97;89.28
32109;BME280;18624;50.042;8.436;2023-04-15T00:05:50;99590.75;;;6.96;89.15
32109;BME280;18624;50.042;8.436;2023-04-15T00:08:17;99587.28;;;6.95;89.36
32109;BME280;18624;50.042;8.436;2023-04-15T00:10:43;99586.50;;;6.95;90.03
32109;BME280;18624;50.042;8.436;2023-04-15T00:13:11;99574.56;;;6.89;89.95
32109;BME280;18624;50.042;8.436;2023-04-15T00:15:38;99586.84;;;6.97;90.27
32109;BME280;18624;50.042;8.436;2023-04-15T00:18:04;99586.06;;;6.96;90.82
32109;BME280;18624;50.042;8.436;2023-04-15T00:20:30;99579.16;;;6.92;90.83
32109;BME280;18624;50.042;8.436;2023-04-15T00:22:57;99590.34;;;6.97;90.97
32109;BME280;18624;50.042;8.436;2023-04-15T00:25:24;99585.75;;;6.94;91.23
32109;BME280;18624;50.042;8.436;2023-04-15T00:27:51;99507.16;;;6.40;91.16
32109;BME280;18624;50.042;8.436;2023-04-15T00:30:18;99580.38;;;6.91;91.21
32109;BME280;18624;50.042;8.436;2023-04-15T00:32:44;99580.44;;;6.87;91.05
32109;BME280;18624;50.042;8.436;2023-04-15T00:35:12;99576.25;;;6.82;91.41
32109;BME280;18624;50.042;8.436;2023-04-15T00:37:38;99569.72;;;6.80;91.10
32109;BME280;18624;50.042;8.436;2023-04-15T00:40:05;99567.41;;;6.78;89.30
32109;BME280;18624;50.042;8.436;2023-04-15T00:42:33;99572.56;;;6.73;89.04
32109;BME280;18624;50.042;8.436;2023-04-15T00:45:00;99564.97;;;6.64;90.00
32109;BME280;18624;50.042;8.436;2023-04-15T00:47:28;99541.66;;;6.43;90.05
32109;BME280;18624;50.042;8.436;2023-04-15T00:49:55;99561.78;;;6.49;89.80
32109;BME280;18624;50.042;8.436;2023-04-15T00:52:21;99559.63;;;6.41;89.67
32109;BME280;18624;50.042;8.436;2023-04-15T00:54:49;99564.72;;;6.39;89.53
32109;BME280;18624;50.042;8.436;2023-04-15T00:57:17;99560.13;;;6.36;90.10
32109;BME280;18624;50.042;8.436;2023-04-15T00:59:44;99559.34;;;6.35;90.64
32109;BME280;18624;50.042;8.436;2023-04-15T01:02:11;99565.91;;;6.38;90.19
32109;BME280;18624;50.042;8.436;2023-04-15T01:04:38;99564.00;;;6.34;90.31
32109;BME280;18624;50.042;8.436;2023-04-15T01:07:04;99559.06;;;6.29;90.47
32109;BME280;18624;50.042;8.436;2023-04-15T01:09:31;99477.72;;;5.72;90.77
32109;BME280;18624;50.042;8.436;2023-04-15T01:11:58;99563.34;;;6.30;91.93
32109;BME280;18624;50.042;8.436;2023-04-15T01:14:25;99562.53;;;6.30;92.48
32109;BME280;18624;50.042;8.436;2023-04-15T01:16:52;99544.41;;;6.23;93.51
32109;BME280;18624;50.042;8.436;2023-04-15T01:19:18;99506.78;;;5.98;93.35
32109;BME280;18624;50.042;8.436;2023-04-15T01:21:45;99559.00;;;6.33;93.02
32109;BME280;18624;50.042;8.436;2023-04-15T01:24:12;99556.28;;;6.33;93.88
32109;BME280;18624;50.042;8.436;2023-04-15T01:26:41;99542.88;;;6.22;93.64
32109;BME280;18624;50.042;8.436;2023-04-15T01:29:10;99569.66;;;6.44;93.19
32109;BME280;18624;50.042;8.436;2023-04-15T01:31:36;99564.00;;;6.34;93.11
32109;BME280;18624;50.042;8.436;2023-04-15T01:34:03;99555.56;;;6.29;92.45
32109;BME280;18624;50.042;8.436;2023-04-15T01:36:30;99556.28;;;6.33;93.45
32109;BME280;18624;50.042;8.436;2023-04-15T01:38:57;99540.16;;;6.22;93.70
32109;BME280;18624;50.042;8.436;2023-04-15T01:41:27;99572.75;;;6.46;93.99
32109;BME280;18624;50.042;8.436;2023-04-15T01:43:54;99436.88;;;5.55;93.77
32109;BME280;18624;50.042;8.436;2023-04-15T01:46:21;99462.97;;;5.73;93.97
32109;BME280;18624;50.042;8.436;2023-04-15T01:48:48;99571.91;;;6.49;93.97
32109;BME280;18624;50.042;8.436;2023-04-15T01:51:14;99547.63;;;6.38;93.30
32109;BME280;18624;50.042;8.436;2023-04-15T01:53:41;99472.75;;;5.90;93.08
32109;BME280;18624;50.042;8.436;2023-04-15T01:56:08;99568.97;;;6.59;91.46
32109;BME280;18624;50.042;8.436;2023-04-15T01:58:34;99529.75;;;6.37;90.73
32109;BME280;18624;50.042;8.436;2023-04-15T02:01:01;99545.38;;;6.53;90.06
32109;BME280;18624;50.042;8.436;2023-04-15T02:03:30;99551.88;;;6.59;89.86
32109;BME280;18624;50.042;8.436;2023-04-15T02:05:57;99549.47;;;6.61;89.79
32109;BME280;18624;50.042;8.436;2023-04-15T02:08:23;99551.38;;;6.64;89.69
32109;BME280;18624;50.042;8.436;2023-04-15T02:10:50;99546.47;;;6.55;90.28
32109;BME280;18624;50.042;8.436;2023-04-15T02:13:17;99585.94;;;6.67;90.47
32109;BME280;18624;50.042;8.436;2023-04-15T02:15:49;99549.28;;;6.52;90.86
32109;BME280;18624;50.042;8.436;2023-04-15T02:18:18;99475.00;;;5.95;91.26
32109;BME280;18624;50.042;8.436;2023-04-15T02:20:44;99572.44;;;6.60;91.17
32109;BME280;18624;50.042;8.436;2023-04-15T02:23:12;99572.03;;;6.62;92.61
32109;BME280;18624;50.042;8.436;2023-04-15T02:25:38;99570.91;;;6.59;92.48
32109;BME280;18624;50.042;8.436;2023-04-15T02:28:05;99575.25;;;6.56;92.27
32109;BME280;18624;50.042;8.436;2023-04-15T02:30:32;99536.25;;;6.23;92.70
32109;BME280;18624;50.042;8.436;2023-04-15T02:33:00;99541.69;;;6.23;92.86
32109;BME280;18624;50.042;8.436;2023-04-15T02:35:27;99548.22;;;6.26;92.97
32109;BME280;18624;50.042;8.436;2023-04-15T02:37:54;99566.66;;;6.38;92.50
32109;BME280;18624;50.042;8.436;2023-04-15T02:40:21;99572.88;;;6.39;92.99
32109;BME280;18624;50.042;8.436;2023-04-15T02:42:47;99570.91;;;6.39;92.46
32109;BME280;18624;50.042;8.436;2023-04-15T02:45:16;99571.28;;;6.41;92.56
32109;BME280;18624;50.042;8.436;2023-04-15T02:47:44;99570.59;;;6.37;92.64
32109;BME280;18624;50.042;8.436;2023-04-15T02:50:12;99574.75;;;6.42;93.53
32109;BME280;18624;50.042;8.436;2023-04-15T02:52:41;99573.72;;;6.36;93.60
32109;BME280;18624;50.042;8.436;2023-04-15T02:55:08;99573.72;;;6.36;94.51
32109;BME280;18624;50.042;8.436;2023-04-15T02:57:36;99576.44;;;6.36;95.72
32109;BME280;18624;50.042;8.436;2023-04-15T03:00:06;99578.03;;;6.33;95.67
32109;BME280;18624;50.042;8.436;2023-04-15T03:02:38;99576.59;;;6.28;95.81
32109;BME280;18624;50.042;8.436;2023-04-15T03:05:05;99572.94;;;6.15;95.52
32109;BME280;18624;50.042;8.436;2023-04-15T03:07:32;99576.44;;;6.16;95.85
32109;BME280;18624;50.042;8.436;2023-04-15T03:10:00;99584.66;;;6.12;96.03
32109;BME280;18624;50.042;8.436;2023-04-15T03:12:26;99523.19;;;5.71;96.69
32109;BME280;18624;50.042;8.436;2023-04-15T03:14:55;99587.81;;;6.11;96.57
32109;BME280;18624;50.042;8.436;2023-04-15T03:17:29;99574.41;;;6.00;96.46
32109;BME280;18624;50.042;8.436;2023-04-15T03:19:55;99583.97;;;6.08;96.03
32109;BME280;18624;50.042;8.436;2023-04-15T03:22:22;99597.56;;;6.08;96.00
32109;BME280;18624;50.042;8.436;2023-04-15T03:24:51;99567.13;;;5.93;96.08
32109;BME280;18624;50.042;8.436;2023-04-15T03:27:17;99583.97;;;6.08;97.05
32109;BME280;18624;50.042;8.436;2023-04-15T03:29:44;99580.06;;;6.09;97.04
32109;BME280;18624;50.042;8.436;2023-04-15T03:32:12;99580.81;;;6.09;97.08
32109;BME280;18624;50.042;8.436;2023-04-15T03:34:40;99514.75;;;5.66;96.59
32109;BME280;18624;50.042;8.436;2023-04-15T03:37:07;99570.91;;;5.99;96.24
32109;BME280;18624;50.042;8.436;2023-04-15T03:39:34;99583.28;;;6.04;95.38
32109;BME280;18624;50.042;8.436;2023-04-15T03:42:00;99578.22;;;6.02;94.62
32109;BME280;18624;50.042;8.436;2023-04-15T03:44:29;99481.94;;;5.33;93.10
32109;BME280;18624;50.042;8.436;2023-04-15T03:46:55;99552.41;;;5.67;92.80
32109;BME280;18624;50.042;8.436;2023-04-15T03:49:22;99576.66;;;5.81;93.15
32109;BME280;18624;50.042;8.436;2023-04-15T03:51:49;99527.19;;;5.43;93.63
32109;BME280;18624;50.042;8.436;2023-04-15T03:54:16;99576.34;;;5.76;93.55
32109;BME280;18624;50.042;8.436;2023-04-15T03:56:42;99577.56;;;5.71;93.90
32109;BME280;18624;50.042;8.436;2023-04-15T03:59:08;99531.50;;;5.41;93.39
32109;BME280;18624;50.042;8.436;2023-04-15T04:01:35;99573.38;;;5.67;94.98
32109;BME280;18624;50.042;8.436;2023-04-15T04:04:01;99566.47;;;5.62;94.78
32109;BME280;18624;50.042;8.436;2023-04-15T04:06:28;99551.81;;;5.56;95.05
32109;BME280;18624;50.042;8.436;2023-04-15T04:08:54;99515.84;;;5.25;95.64
32109;BME280;18624;50.042;8.436;2023-04-15T04:11:21;99576.94;;;5.64;95.38
32109;BME280;18624;50.042;8.436;2023-04-15T04:13:48;99574.34;;;5.56;95.66
32109;BME280;18624;50.042;8.436;2023-04-15T04:16:14;99577.88;;;5.53;96.24
32109;BME280;18624;50.042;8.436;2023-04-15T04:18:41;99481.38;;;4.95;97.26
32109;BME280;18624;50.042;8.436;2023-04-15T04:21:07;99457.59;;;4.79;96.76
32109;BME280;18624;50.042;8.436;2023-04-15T04:23:33;99571.63;;;5.56;96.56
32109;BME280;18624;50.042;8.436;2023-04-15T04:26:00;99550.81;;;5.46;97.12
32109;BME280;18624;50.042;8.436;2023-04-15T04:28:27;99564.16;;;5.61;96.62
32109;BME280;18624;50.042;8.436;2023-04-15T04:30:54;99492.13;;;5.02;96.76
32109;BME280;18624;50.042;8.436;2023-04-15T04:33:21;99524.69;;;5.29;97.13
32109;BME280;18624;50.042;8.436;2023-04-15T04:35:47;99573.84;;;5.62;97.98
32109;BME280;18624;50.042;8.436;2023-04-15T04:38:14;99572.31;;;5.61;97.48
32109;BME280;18624;50.042;8.436;2023-04-15T04:40:40;99580.47;;;5.61;97.09
32109;BME280;18624;50.042;8.436;2023-04-15T04:43:07;99574.75;;;5.55;97.30
32109;BME280;18624;50.042;8.436;2023-04-15T04:45:33;99572.03;;;5.55;98.06
32109;BME280;18624;50.042;8.436;2023-04-15T04:48:00;99587.94;;;5.56;98.08
32109;BME280;18624;50.042;8.436;2023-04-15T04:50:26;99572.81;;;5.55;97.72
32109;BME280;18624;50.042;8.436;2023-04-15T04:52:53;99571.19;;;5.58;98.48
32109;BME280;18624;50.042;8.436;2023-04-15T04:55:19;99577.72;;;5.41;99.26
32109;BME280;18624;50.042;8.436;2023-04-15T04:57:46;99498.06;;;4.70;100.00
32109;BME280;18624;50.042;8.436;2023-04-15T05:00:12;99559.09;;;5.12;100.00
32109;BME280;18624;50.042;8.436;2023-04-15T05:02:39;99564.03;;;5.21;100.00
32109;BME280;18624;50.042;8.436;2023-04-15T05:05:08;99585.91;;;5.37;100.00
32109;BME280;18624;50.042;8.436;2023-04-15T05:07:34;99475.63;;;4.66;100.00
32109;BME280;18624;50.042;8.436;2023-04-15T05:10:01;99569.22;;;5.35;100.00
32109;BME280;18624;50.042;8.436;2023-04-15T05:12:27;99588.34;;;5.55;99.69
32109;BME280;18624;50.042;8.436;2023-04-15T05:14:54;99562.31;;;5.30;98.73
32109;BME280;18624;50.042;8.436;2023-04-15T05:17:20;99565.41;;;5.32;98.84
32109;BME280;18624;50.042;8.436;2023-04-15T05:19:47;99599.63;;;5.53;99.69
32109;BME280;18624;50.042;8.436;2023-04-15T05:22:14;99509.41;;;4.88;100.00
32109;BME280;18624;50.042;8.436;2023-04-15T05:24:40;99586.53;;;5.45;100.00
32109;BME280;18624;50.042;8.436;2023-04-15T05:27:07;99546.13;;;5.23;100.00
32109;BME280;18624;50.042;8.436;2023-04-15T05:29:33;99601.34;;;5.67;100.00
32109;BME280;18624;50.042;8.436;2023-04-15T05:32:00;99604.84;;;5.68;100.00
32109;BME280;18624;50.042;8.436;2023-04-15T05:34:26;99600.75;;;5.56;100.00
32109;BME280;18624;50.042;8.436;2023-04-15T05:36:53;99618.00;;;5.69;99.87
32109;BME280;18624;50.042;8.436;2023-04-15T05:39:19;99623.88;;;5.68;100.00
32109;BME280;18624;50.042;8.436;2023-04-15T05:41:46;99626.94;;;5.70;100.00
32109;BME280;18624;50.042;8.436;2023-04-15T05:44:13;99620.63;;;5.76;100.00
32109;BME280;18624;50.042;8.436;2023-04-15T05:46:39;99606.38;;;5.69;100.00
32109;BME280;18624;50.042;8.436;2023-04-15T05:49:06;99632.13;;;5.84;100.00
32109;BME280;18624;50.042;8.436;2023-04-15T05:51:32;99610.09;;;5.78;100.00
32109;BME280;18624;50.042;8.436;2023-04-15T05:53:59;99619.22;;;5.92;100.00
32109;BME280;18624;50.042;8.436;2023-04-15T05:56:26;99625.00;;;5.94;100.00
32109;BME280;18624;50.042;8.436;2023-04-15T05:58:52;99608.91;;;5.79;99.86
32109;BME280;18624;50.042;8.436;2023-04-15T06:01:19;99628.50;;;5.94;100.00
32109;BME280;18624;50.042;8.436;2023-04-15T06:03:45;99630.06;;;5.95;100.00
32109;BME280;18624;50.042;8.436;2023-04-15T06:06:12;99619.22;;;5.92;100.00
32109;BME280;18624;50.042;8.436;2023-04-15T06:08:39;99638.06;;;6.02;100.00
32109;BME280;18624;50.042;8.436;2023-04-15T06:11:06;99626.91;;;5.97;100.00
32109;BME280;18624;50.042;8.436;2023-04-15T06:13:32;99621.13;;;5.95;99.73
32109;BME280;18624;50.042;8.436;2023-04-15T06:16:00;99642.69;;;6.05;100.00
32109;BME280;18624;50.042;8.436;2023-04-15T06:18:26;99632.28;;;6.00;100.00
32109;BME280;18624;50.042;8.436;2023-04-15T06:20:53;99632.25;;;6.04;100.00
32109;BME280;18624;50.042;8.436;2023-04-15T06:23:19;99644.16;;;6.10;100.00
32109;BME280;18624;50.042;8.436;2023-04-15T06:25:46;99650.31;;;6.14;100.00
32109;BME280;18624;50.042;8.436;2023-04-15T06:28:12;99615.25;;;5.96;100.00
32109;BME280;18624;50.042;8.436;2023-04-15T06:30:38;99519.50;;;5.38;100.00
32109;BME280;18624;50.042;8.436;2023-04-15T06:33:05;99638.84;;;6.26;100.00
32109;BME280;18624;50.042;8.436;2023-04-15T06:35:32;99532.69;;;5.63;100.00
32109;BME280;18624;50.042;8.436;2023-04-15T06:37:58;99661.31;;;6.50;100.00
32109;BME280;18624;50.042;8.436;2023-04-15T06:40:25;99663.50;;;6.59;100.00
32109;BME280;18624;50.042;8.436;2023-04-15T06:42:52;99667.25;;;6.65;99.78
32109;BME280;18624;50.042;8.436;2023-04-15T06:45:18;99644.88;;;6.57;98.27
32109;BME280;18624;50.042;8.436;2023-04-15T06:47:45;99672.16;;;6.74;97.01
32109;BME280;18624;50.042;8.436;2023-04-15T06:50:11;99671.88;;;6.68;97.96
32109;BME280;18624;50.042;8.436;2023-04-15T06:52:38;99672.00;;;6.61;99.44
32109;BME280;18624;50.042;8.436;2023-04-15T06:55:06;99666.88;;;6.67;99.59
32109;BME280;18624;50.042;8.436;2023-04-15T06:57:33;99665.94;;;6.53;100.00
32109;BME280;18624;50.042;8.436;2023-04-15T07:00:00;99677.88;;;6.79;100.00
32109;BME280;18624;50.042;8.436;2023-04-15T07:02:27;99673.34;;;6.93;100.00
32109;BME280;18624;50.042;8.436;2023-04-15T07:04:53;99676.63;;;7.04;100.00
32109;BME280;18624;50.042;8.436;2023-04-15T07:07:20;99673.53;;;7.02;98.73
32109;BME280;18624;50.042;8.436;2023-04-15T07:09:47;99673.53;;;7.02;99.45
32109;BME280;18624;50.042;8.436;2023-04-15T07:12:13;99636.47;;;6.68;98.96
32109;BME280;18624;50.042;8.436;2023-04-15T07:14:40;99668.94;;;6.99;100.00
32109;BME280;18624;50.042;8.436;2023-04-15T07:17:08;99682.69;;;7.12;100.00
32109;BME280;18624;50.042;8.436;2023-04-15T07:19:35;99665.41;;;7.18;100.00
32109;BME280;18624;50.042;8.436;2023-04-15T07:22:01;99664.59;;;7.38;100.00
32109;BME280;18624;50.042;8.436;2023-04-15T07:24:28;99589.06;;;7.02;100.00
32109;BME280;18624;50.042;8.436;2023-04-15T07:26:54;99592.16;;;7.20;99.28
32109;BME280;18624;50.042;8.436;2023-04-15T07:29:26;99670.09;;;7.86;96.34
32109;BME280;18624;50.042;8.436;2023-04-15T07:31:53;99668.72;;;7.95;94.06
32109;BME280;18624;50.042;8.436;2023-04-15T07:34:19;99665.03;;;8.01;92.92
32109;BME280;18624;50.042;8.436;2023-04-15T07:36:46;99666.84;;;8.08;95.92
32109;BME280;18624;50.042;8.436;2023-04-15T07:39:15;99663.81;;;8.19;96.79
32109;BME280;18624;50.042;8.436;2023-04-15T07:41:42;99619.75;;;8.04;94.89
32109;BME280;18624;50.042;8.436;2023-04-15T07:44:08;99670.22;;;8.45;91.84
32109;BME280;18624;50.042;8.436;2023-04-15T07:46:35;99553.03;;;7.76;91.04
32109;BME280;18624;50.042;8.436;2023-04-15T07:49:02;99673.44;;;8.69;90.92
32109;BME280;18624;50.042;8.436;2023-04-15T07:51:29;99676.75;;;8.76;91.21
32109;BME280;18624;50.042;8.436;2023-04-15T07:53:57;99676.25;;;8.94;92.40
32109;BME280;18624;50.042;8.436;2023-04-15T07:56:24;99674.41;;;9.04;90.56
32109;BME280;18624;50.042;8.436;2023-04-15T07:58:51;99673.13;;;9.21;91.97
32109;BME280;18624;50.042;8.436;2023-04-15T08:01:18;99668.13;;;9.32;88.22
32109;BME280;18624;50.042;8.436;2023-04-15T08:03:44;99673.59;;;9.45;87.99
32109;BME280;18624;50.042;8.436;2023-04-15T08:06:11;99674.59;;;9.64;90.45
32109;BME280;18624;50.042;8.436;2023-04-15T08:08:38;99674.34;;;9.84;87.78
32109;BME280;18624;50.042;8.436;2023-04-15T08:11:04;99676.03;;;10.03;87.08
32109;BME280;18624;50.042;8.436;2023-04-15T08:13:31;99610.84;;;9.76;85.25
32109;BME280;18624;50.042;8.436;2023-04-15T08:18:39;99671.53;;;10.57;82.14
32109;BME280;18624;50.042;8.436;2023-04-15T08:21:06;99585.91;;;10.09;85.79
32109;BME280;18624;50.042;8.436;2023-04-15T08:23:33;99658.66;;;10.67;83.93
32109;BME280;18624;50.042;8.436;2023-04-15T08:26:01;99667.72;;;10.76;83.75
32109;BME280;18624;50.042;8.436;2023-04-15T08:28:27;99671.81;;;10.72;83.83
32109;BME280;18624;50.042;8.436;2023-04-15T08:30:53;99643.28;;;10.47;83.51
32109;BME280;18624;50.042;8.436;2023-04-15T08:33:20;99664.75;;;10.71;82.60
32109;BME280;18624;50.042;8.436;2023-04-15T08:35:48;99671.47;;;10.70;83.52
32109;BME280;18624;50.042;8.436;2023-04-15T08:38:14;99683.78;;;10.65;81.44
32109;BME280;18624;50.042;8.436;2023-04-15T08:40:42;99673.69;;;10.62;82.12
32109;BME280;18624;50.042;8.436;2023-04-15T08:43:12;99672.50;;;10.63;85.88
32109;BME280;18624;50.042;8.436;2023-04-15T08:45:41;99665.91;;;10.60;82.42
32109;BME280;18624;50.042;8.436;2023-04-15T08:48:08;99681.59;;;10.82;83.73
32109;BME280;18624;50.042;8.436;2023-04-15T08:50:38;99677.41;;;10.90;82.84
32109;BME280;18624;50.042;8.436;2023-04-15T08:53:05;99679.16;;;11.06;78.63
32109;BME280;18624;50.042;8.436;2023-04-15T08:55:35;99678.00;;;11.16;74.30
32109;BME280;18624;50.042;8.436;2023-04-15T08:58:01;99673.72;;;11.15;75.66
32109;BME280;18624;50.042;8.436;2023-04-15T09:00:28;99672.38;;;11.20;78.03
32109;BME280;18624;50.042;8.436;2023-04-15T09:02:55;99596.19;;;10.61;73.36
32109;BME280;18624;50.042;8.436;2023-04-15T09:05:22;99663.03;;;11.08;73.57
32109;BME280;18624;50.042;8.436;2023-04-15T09:07:49;99573.16;;;10.50;73.67
32109;BME280;18624;50.042;8.436;2023-04-15T09:10:16;99672.06;;;11.18;71.27
32109;BME280;18624;50.042;8.436;2023-04-15T09:12:43;99669.59;;;11.10;72.42
32109;BME280;18624;50.042;8.436;2023-04-15T09:15:10;99672.78;;;11.09;71.13
32109;BME280;18624;50.042;8.436;2023-04-15T09:17:44;99673.22;;;11.07;70.71
32109;BME280;18624;50.042;8.436;2023-04-15T09:20:15;99678.69;;;11.07;73.27
32109;BME280;18624;50.042;8.436;2023-04-15T09:22:44;99699.00;;;11.10;70.66
32109;BME280;18624;50.042;8.436;2023-04-15T09:25:25;99685.47;;;11.15;68.99
32109;BME280;18624;50.042;8.436;2023-04-15T09:27:59;99609.84;;;10.52;67.79
32109;BME280;18624;50.042;8.436;2023-04-15T09:30:27;99690.31;;;11.11;69.50
32109;BME280;18624;50.042;8.436;2023-04-15T09:32:56;99687.13;;;11.13;68.79
32109;BME280;18624;50.042;8.436;2023-04-15T09:35:24;99600.53;;;10.50;69.56
32109;BME280;18624;50.042;8.436;2023-04-15T09:37:52;99693.09;;;11.21;70.18
32109;BME280;18624;50.042;8.436;2023-04-15T09:40:34;99696.81;;;11.27;69.10
32109;BME280;18624;50.042;8.436;2023-04-15T09:43:03;99695.59;;;11.28;70.11
32109;BME280;18624;50.042;8.436;2023-04-15T09:45:31;99705.97;;;11.33;67.35
32109;BME280;18624;50.042;8.436;2023-04-15T09:48:00;99706.31;;;11.35;66.33
32109;BME280;18624;50.042;8.436;2023-04-15T09:50:40;99691.19;;;11.30;64.47
32109;BME280;18624;50.042;8.436;2023-04-15T09:53:10;99630.91;;;10.86;64.78
32109;BME280;18624;50.042;8.436;2023-04-15T09:55:43;99701.41;;;11.39;65.63
32109;BME280;18624;50.042;8.436;2023-04-15T09:58:24;99697.31;;;11.44;68.38
32109;BME280;18624;50.042;8.436;2023-04-15T10:00:53;99705.00;;;11.49;68.51
32109;BME280;18624;50.042;8.436;2023-04-15T10:03:24;99707.44;;;11.56;66.34
32109;BME280;18624;50.042;8.436;2023-04-15T10:05:54;99601.25;;;10.94;66.61
32109;BME280;18624;50.042;8.436;2023-04-15T10:08:30;99714.38;;;11.70;67.72
32109;BME280;18624;50.042;8.436;2023-04-15T10:10:59;99713.47;;;11.73;65.30
32109;BME280;18624;50.042;8.436;2023-04-15T10:13:29;99712.72;;;11.72;65.47
32109;BME280;18624;50.042;8.436;2023-04-15T10:16:27;99700.84;;;11.75;66.86
32109;BME280;18624;50.042;8.436;2023-04-15T10:18:55;99715.69;;;11.87;64.40
32109;BME280;18624;50.042;8.436;2023-04-15T10:21:22;99718.91;;;11.95;61.06
32109;BME280;18624;50.042;8.436;2023-04-15T10:23:49;99679.75;;;11.72;51.44
32109;BME280;18624;50.042;8.436;2023-04-15T10:26:16;99731.91;;;12.03;49.35
32109;BME280;18624;50.042;8.436;2023-04-15T10:28:43;99732.19;;;12.05;47.93
32109;BME280;18624;50.042;8.436;2023-04-15T10:31:11;99736.34;;;12.10;45.96
32109;BME280;18624;50.042;8.436;2023-04-15T10:33:39;99742.59;;;12.10;43.98
32109;BME280;18624;50.042;8.436;2023-04-15T10:36:07;99743.66;;;12.04;45.31
32109;BME280;18624;50.042;8.436;2023-04-15T10:38:41;99626.38;;;11.24;46.66
32109;BME280;18624;50.042;8.436;2023-04-15T10:43:53;99749.25;;;11.91;46.62
32109;BME280;18624;50.042;8.436;2023-04-15T10:46:40;99706.06;;;11.51;45.39
32109;BME280;18624;50.042;8.436;2023-04-15T10:49:08;99750.63;;;11.86;45.33
32109;BME280;18624;50.042;8.436;2023-04-15T10:51:41;99655.91;;;11.20;47.15
32109;BME280;18624;50.042;8.436;2023-04-15T10:54:13;99764.09;;;12.03;46.15
32109;BME280;18624;50.042;8.436;2023-04-15T10:56:44;99757.25;;;12.07;46.37
32109;BME280;18624;50.042;8.436;2023-04-15T10:59:10;99765.78;;;12.09;48.50
32109;BME280;18624;50.042;8.436;2023-04-15T11:02:11;99763.22;;;12.15;50.10
32109;BME280;18624;50.042;8.436;2023-04-15T11:04:52;99761.56;;;12.27;49.83
32109;BME280;18624;50.042;8.436;2023-04-15T11:07:48;99764.19;;;12.39;49.88
32109;BME280;18624;50.042;8.436;2023-04-15T11:12:53;99750.00;;;12.50;50.29
32109;BME280;18624;50.042;8.436;2023-04-15T11:15:35;99767.88;;;12.64;49.90
32109;BME280;18624;50.042;8.436;2023-04-15T11:18:10;99764.97;;;12.67;49.02
32109;BME280;18624;50.042;8.436;2023-04-15T11:20:36;99764.22;;;12.67;49.49
32109;BME280;18624;50.042;8.436;2023-04-15T11:23:04;99763.91;;;12.65;50.18
32109;BME280;18624;50.042;8.436;2023-04-15T11:25:41;99632.94;;;11.66;50.64
32109;BME280;18624;50.042;8.436;2023-04-15T11:28:08;99771.22;;;12.59;50.51
32109;BME280;18624;50.042;8.436;2023-04-15T11:30:36;99773.81;;;12.53;49.96
32109;BME280;18624;50.042;8.436;2023-04-15T11:33:04;99765.72;;;12.50;50.89
32109;BME280;18624;50.042;8.436;2023-04-15T11:35:31;99776.25;;;12.51;52.00
32109;BME280;18624;50.042;8.436;2023-04-15T11:38:02;99760.97;;;12.41;51.83
32109;BME280;18624;50.042;8.436;2023-04-15T11:40:29;99783.91;;;12.56;51.97
32109;BME280;18624;50.042;8.436;2023-04-15T11:43:09;99785.75;;;12.59;52.61
32109;BME280;18624;50.042;8.436;2023-04-15T11:45:37;99790.34;;;12.62;53.18
32109;BME280;18624;50.042;8.436;2023-04-15T11:48:12;99787.28;;;12.70;51.90
32109;BME280;18624;50.042;8.436;2023-04-15T11:50:39;99794.47;;;12.76;52.00
32109;BME280;18624;50.042;8.436;2023-04-15T11:53:08;99790.97;;;12.76;52.32
32109;BME280;18624;50.042;8.436;2023-04-15T11:55:41;99795.69;;;12.75;54.13
32109;BME280;18624;50.042;8.436;2023-04-15T11:58:23;99795.06;;;12.71;54.41
32109;BME280;18624;50.042;8.436;2023-04-15T12:00:54;99803.75;;;12.70;55.29
32109;BME280;18624;50.042;8.436;2023-04-15T12:03:27;99810.47;;;12.59;53.86
32109;BME280;18624;50.042;8.436;2023-04-15T12:11:34;99750.75;;;11.83;61.76
32109;BME280;18624;50.042;8.436;2023-04-15T12:16:46;99839.31;;;12.05;67.37
32109;BME280;18624;50.042;8.436;2023-04-15T12:19:22;99826.31;;;11.97;72.87
32109;BME280;18624;50.042;8.436;2023-04-15T12:21:49;99831.06;;;11.74;75.29
32109;BME280;18624;50.042;8.436;2023-04-15T12:24:19;99821.38;;;11.60;81.88
32109;BME280;18624;50.042;8.436;2023-04-15T12:26:55;99843.72;;;11.72;84.80
32109;BME280;18624;50.042;8.436;2023-04-15T12:29:27;99851.56;;;11.60;79.88
32109;BME280;18624;50.042;8.436;2023-04-15T12:32:07;99858.34;;;11.47;80.62
32109;BME280;18624;50.042;8.436;2023-04-15T12:35:09;99849.41;;;11.33;82.17
32109;BME280;18624;50.042;8.436;2023-04-15T12:37:29;99859.50;;;11.36;85.45
32109;BME280;18624;50.042;8.436;2023-04-15T12:39:55;99849.75;;;11.35;90.27
32109;BME280;18624;50.042;8.436;2023-04-15T12:42:22;99865.16;;;11.42;85.75
32109;BME280;18624;50.042;8.436;2023-04-15T12:44:48;99868.38;;;11.40;86.53
32109;BME280;18624;50.042;8.436;2023-04-15T12:47:15;99852.03;;;11.37;84.62
32109;BME280;18624;50.042;8.436;2023-04-15T12:49:41;99813.41;;;11.09;85.52
32109;BME280;18624;50.042;8.436;2023-04-15T12:52:08;99874.69;;;11.50;87.01
32109;BME280;18624;50.042;8.436;2023-04-15T12:54:34;99867.16;;;11.41;82.76
32109;BME280;18624;50.042;8.436;2023-04-15T12:57:01;99793.56;;;10.83;82.60
32109;BME280;18624;50.042;8.436;2023-04-15T12:59:32;99879.78;;;11.39;81.66
32109;BME280;18624;50.042;8.436;2023-04-15T13:01:58;99890.06;;;11.48;82.35
32109;BME280;18624;50.042;8.436;2023-04-15T13:04:26;99899.44;;;11.37;83.31
32109;BME280;18624;50.042;8.436;2023-04-15T13:06:56;99895.06;;;11.40;84.57
32109;BME280;18624;50.042;8.436;2023-04-15T13:09:23;99900.28;;;11.47;86.77
32109;BME280;18624;50.042;8.436;2023-04-15T13:11:49;99901.59;;;11.43;82.84
32109;BME280;18624;50.042;8.436;2023-04-15T13:14:16;99914.00;;;11.47;85.61
32109;BME280;18624;50.042;8.436;2023-04-15T13:16:42;99909.97;;;11.39;87.35
32109;BME280;18624;50.042;8.436;2023-04-15T13:19:09;99860.31;;;10.89;90.86
32109;BME280;18624;50.042;8.436;2023-04-15T13:21:35;99915.25;;;11.33;93.76
32109;BME280;18624;50.042;8.436;2023-04-15T13:24:03;99919.59;;;11.22;92.02
32109;BME280;18624;50.042;8.436;2023-04-15T13:26:30;99915.84;;;11.15;94.73